Elena Of London — 2COR3 — position and weather

sailwx.info

Track history (hours):
 
Tides and Currents Weather Stations Pressure Air Temp Water Temp Dewpoint Dewpoint Depression Visibility Wind Speed Wind Dir Waves Ship Positions

Elena Of London

Last reported at 2018-Apr-26 14:04 UTC. Time now 2018-Apr-26 15:37 UTC.
Position N 35°19' W 013°04'.

Length 44 m; draft 5.2 m.

Type: Sailing vessel. MMSI: 235074534.

Date/timePositionNaut miles runAvg speedWind from/ knotsBaromVisibWave heightAir tempDewpointWater temp
2018-Apr-26 14:04N 35°19' W 013°04'44511.4
2018-Apr-24 23:04N 37°01' W 022°00'110.4
2018-Apr-24 23:00N 37°01' W 022°01'2311.4
2018-Apr-24 20:58N 37°04' W 022°30'2411.2
2018-Apr-24 18:52N 37°04' W 022°59'611.0
2018-Apr-24 18:20N 37°04' W 023°07'411.1
2018-Apr-24 18:00N 37°04' W 023°11'611.5
2018-Apr-24 17:29N 37°04' W 023°19'711.4
2018-Apr-24 16:54N 37°04' W 023°27'511.1
2018-Apr-24 16:29N 37°04' W 023°33'510.5
2018-Apr-24 16:00N 37°04' W 023°39'510.4
2018-Apr-24 15:29N 37°04' W 023°46'510.5
2018-Apr-24 15:01N 37°04' W 023°52'510.2
2018-Apr-24 14:30N 37°03' W 023°58'510.3
2018-Apr-24 14:00N 37°02' W 024°05'510.5
2018-Apr-24 13:31N 37°02' W 024°11'510.3
2018-Apr-24 13:00N 37°02' W 024°18'510.4
2018-Apr-24 12:30N 37°02' W 024°24'510.4
2018-Apr-24 12:00N 37°02' W 024°31'510.5
2018-Apr-24 11:30N 37°02' W 024°37'510.1
2018-Apr-24 11:00N 37°02' W 024°44'510.1
2018-Apr-24 10:30N 37°02' W 024°50'510.2
2018-Apr-24 10:00N 37°03' W 024°56'510.1
2018-Apr-24 09:30N 37°05' W 025°02'510.2
2018-Apr-24 09:00N 37°08' W 025°07'510.0
2018-Apr-24 08:30N 37°11' W 025°13'510.2
2018-Apr-24 08:00N 37°14' W 025°18'510.3
2018-Apr-24 07:30N 37°16' W 025°23'510.2
2018-Apr-24 07:01N 37°20' W 025°28'510.1
2018-Apr-24 06:30N 37°23' W 025°32'5 9.9
2018-Apr-24 06:00N 37°27' W 025°37'5 9.7
2018-Apr-24 05:31N 37°30' W 025°42'5 9.4
2018-Apr-24 05:00N 37°33' W 025°46'15 9.3
2018-Apr-24 03:20N 37°25' W 026°03'4 7.1
2018-Apr-24 02:44N 37°27' W 026°08'3 9.7
2018-Apr-24 02:22N 37°30' W 026°11'4 9.5
2018-Apr-24 02:00N 37°33' W 026°13'1010.1
2018-Apr-24 00:58N 37°42' W 026°20'1410.6
2018-Apr-23 23:39N 37°51' W 026°33'310.9
2018-Apr-23 23:24N 37°53' W 026°36'411.0
2018-Apr-23 23:00N 37°56' W 026°40'611.1
2018-Apr-23 22:28N 37°60' W 026°46'610.4
2018-Apr-23 21:55N 38°03' W 026°51'510.5
2018-Apr-23 21:27N 38°06' W 026°56'510.5
2018-Apr-23 21:00N 38°09' W 027°01'510.7
2018-Apr-23 20:30N 38°12' W 027°07'510.9
2018-Apr-23 20:00N 38°15' W 027°13'611.1
2018-Apr-23 19:30N 38°17' W 027°19'510.9
2018-Apr-23 19:00N 38°19' W 027°25'5 9.3
2018-Apr-23 18:30N 38°21' W 027°31'5 9.6
2018-Apr-23 18:00N 38°23' W 027°37'5 9.3
2018-Apr-23 17:30N 38°25' W 027°42'510.0
2018-Apr-23 17:00N 38°27' W 027°48'3 5.4
2018-Apr-23 16:30N 38°28' W 027°51'710.3
2018-Apr-23 15:47N 38°29' W 028°00'2010.1
2018-Apr-23 13:46N 38°35' W 028°25'10 0.4
2018-Apr-22 14:34N 38°32' W 028°38'0 0.0
2018-Apr-22 14:28N 38°32' W 028°38'0 0.0
2018-Apr-22 13:58N 38°32' W 028°38'0 0.0
2018-Apr-22 13:28N 38°32' W 028°38'0 0.0
2018-Apr-22 12:52N 38°32' W 028°38'0 0.0
2018-Apr-22 12:25N 38°32' W 028°38'0 0.0
2018-Apr-22 11:58N 38°32' W 028°38'0 0.0
2018-Apr-22 10:31N 38°32' W 028°38'0 0.0
2018-Apr-22 09:08N 38°32' W 028°38'0 0.0
2018-Apr-22 08:43N 38°32' W 028°38'1 2.0
2018-Apr-22 08:27N 38°32' W 028°37'410.1
2018-Apr-22 08:00N 38°27' W 028°38'510.1
2018-Apr-22 07:30N 38°23' W 028°42'5 9.8
2018-Apr-22 07:00N 38°22' W 028°48'5 9.3
2018-Apr-22 06:30N 38°19' W 028°53'5 9.4
2018-Apr-22 06:00N 38°16' W 028°58'5 9.5
2018-Apr-22 05:30N 38°14' W 029°03'5 9.6
2018-Apr-22 05:00N 38°11' W 029°08'5 9.5
2018-Apr-22 04:30N 38°08' W 029°13'5 9.7
2018-Apr-22 04:00N 38°05' W 029°18'5 9.7
2018-Apr-22 03:30N 38°02' W 029°23'5 9.6
2018-Apr-22 03:00N 37°60' W 029°28'5 9.3
2018-Apr-22 02:29N 37°56' W 029°32'5 9.8
2018-Apr-22 01:59N 37°53' W 029°37'5 9.6
2018-Apr-22 01:29N 37°50' W 029°42'5 9.4
2018-Apr-22 00:56N 37°47' W 029°47'4 9.5
2018-Apr-22 00:28N 37°45' W 029°52'4 9.1
2018-Apr-21 23:58N 37°43' W 029°57'  
Track history (hours):
 
Tides and Currents Weather Stations Pressure Air Temp Water Temp Dewpoint Dewpoint Depression Visibility Wind Speed Wind Dir Waves Ship Positions

Elena Of London

Last reported at 2018-Apr-26 14:04 UTC. Time now 2018-Apr-26 15:37 UTC.
Position N 35°19' W 013°04'.

Length 44 m; draft 5.2 m.

Type: Sailing vessel. MMSI: 235074534.

Date/timePositionNaut miles runAvg speedWind from/ knotsBaromVisibWave heightAir tempDewpointWater temp
2018-Apr-26 14:04N 35°19' W 013°04'44511.4
2018-Apr-24 23:04N 37°01' W 022°00'110.4
2018-Apr-24 23:00N 37°01' W 022°01'2311.4
2018-Apr-24 20:58N 37°04' W 022°30'2411.2
2018-Apr-24 18:52N 37°04' W 022°59'611.0
2018-Apr-24 18:20N 37°04' W 023°07'411.1
2018-Apr-24 18:00N 37°04' W 023°11'611.5
2018-Apr-24 17:29N 37°04' W 023°19'711.4
2018-Apr-24 16:54N 37°04' W 023°27'511.1
2018-Apr-24 16:29N 37°04' W 023°33'510.5
2018-Apr-24 16:00N 37°04' W 023°39'510.4
2018-Apr-24 15:29N 37°04' W 023°46'510.5
2018-Apr-24 15:01N 37°04' W 023°52'510.2
2018-Apr-24 14:30N 37°03' W 023°58'510.3
2018-Apr-24 14:00N 37°02' W 024°05'510.5
2018-Apr-24 13:31N 37°02' W 024°11'510.3
2018-Apr-24 13:00N 37°02' W 024°18'510.4
2018-Apr-24 12:30N 37°02' W 024°24'510.4
2018-Apr-24 12:00N 37°02' W 024°31'510.5
2018-Apr-24 11:30N 37°02' W 024°37'510.1
2018-Apr-24 11:00N 37°02' W 024°44'510.1
2018-Apr-24 10:30N 37°02' W 024°50'510.2
2018-Apr-24 10:00N 37°03' W 024°56'510.1
2018-Apr-24 09:30N 37°05' W 025°02'510.2
2018-Apr-24 09:00N 37°08' W 025°07'510.0
2018-Apr-24 08:30N 37°11' W 025°13'510.2
2018-Apr-24 08:00N 37°14' W 025°18'510.3
2018-Apr-24 07:30N 37°16' W 025°23'510.2
2018-Apr-24 07:01N 37°20' W 025°28'510.1
2018-Apr-24 06:30N 37°23' W 025°32'5 9.9
2018-Apr-24 06:00N 37°27' W 025°37'5 9.7
2018-Apr-24 05:31N 37°30' W 025°42'5 9.4
2018-Apr-24 05:00N 37°33' W 025°46'15 9.3
2018-Apr-24 03:20N 37°25' W 026°03'4 7.1
2018-Apr-24 02:44N 37°27' W 026°08'3 9.7
2018-Apr-24 02:22N 37°30' W 026°11'4 9.5
2018-Apr-24 02:00N 37°33' W 026°13'1010.1
2018-Apr-24 00:58N 37°42' W 026°20'1410.6
2018-Apr-23 23:39N 37°51' W 026°33'310.9
2018-Apr-23 23:24N 37°53' W 026°36'411.0
2018-Apr-23 23:00N 37°56' W 026°40'611.1
2018-Apr-23 22:28N 37°60' W 026°46'610.4
2018-Apr-23 21:55N 38°03' W 026°51'510.5
2018-Apr-23 21:27N 38°06' W 026°56'510.5
2018-Apr-23 21:00N 38°09' W 027°01'510.7
2018-Apr-23 20:30N 38°12' W 027°07'510.9
2018-Apr-23 20:00N 38°15' W 027°13'611.1
2018-Apr-23 19:30N 38°17' W 027°19'510.9
2018-Apr-23 19:00N 38°19' W 027°25'5 9.3
2018-Apr-23 18:30N 38°21' W 027°31'5 9.6
2018-Apr-23 18:00N 38°23' W 027°37'5 9.3
2018-Apr-23 17:30N 38°25' W 027°42'510.0
2018-Apr-23 17:00N 38°27' W 027°48'3 5.4
2018-Apr-23 16:30N 38°28' W 027°51'710.3
2018-Apr-23 15:47N 38°29' W 028°00'2010.1
2018-Apr-23 13:46N 38°35' W 028°25'10 0.4
2018-Apr-22 14:34N 38°32' W 028°38'0 0.0
2018-Apr-22 14:28N 38°32' W 028°38'0 0.0
2018-Apr-22 13:58N 38°32' W 028°38'0 0.0
2018-Apr-22 13:28N 38°32' W 028°38'0 0.0
2018-Apr-22 12:52N 38°32' W 028°38'0 0.0
2018-Apr-22 12:25N 38°32' W 028°38'0 0.0
2018-Apr-22 11:58N 38°32' W 028°38'0 0.0
2018-Apr-22 10:31N 38°32' W 028°38'0 0.0
2018-Apr-22 09:08N 38°32' W 028°38'0 0.0
2018-Apr-22 08:43N 38°32' W 028°38'1 2.0
2018-Apr-22 08:27N 38°32' W 028°37'410.1
2018-Apr-22 08:00N 38°27' W 028°38'510.1
2018-Apr-22 07:30N 38°23' W 028°42'5 9.8
2018-Apr-22 07:00N 38°22' W 028°48'5 9.3
2018-Apr-22 06:30N 38°19' W 028°53'5 9.4
2018-Apr-22 06:00N 38°16' W 028°58'5 9.5
2018-Apr-22 05:30N 38°14' W 029°03'5 9.6
2018-Apr-22 05:00N 38°11' W 029°08'5 9.5
2018-Apr-22 04:30N 38°08' W 029°13'5 9.7
2018-Apr-22 04:00N 38°05' W 029°18'5 9.7
2018-Apr-22 03:30N 38°02' W 029°23'5 9.6
2018-Apr-22 03:00N 37°60' W 029°28'5 9.3
2018-Apr-22 02:29N 37°56' W 029°32'5 9.8
2018-Apr-22 01:59N 37°53' W 029°37'5 9.6
2018-Apr-22 01:29N 37°50' W 029°42'5 9.4
2018-Apr-22 00:56N 37°47' W 029°47'4 9.5
2018-Apr-22 00:28N 37°45' W 029°52'4 9.1
2018-Apr-21 23:58N 37°43' W 029°57'  

Dump ship's entire track history